Time;durP1;ratioP1;P1;durP2;ratioP2;P2;SDS_P1;SDS_P2;PMS_P1;PMS_P2;Temp;Humidity;BMP_temperature;BMP_pressure;BME280_temperature;BME280_humidity;BME280_pressure;Samples;Min_cycle;Max_cycle;Signal;HPM_P1;HPM_P2
2022/02/07 00:02:25;;;;;;;2.77;1.60;;;;;;;2.92;100.00;98619.91;6079463;23;20033;-87
2022/02/07 00:04:52;;;;;;;2.80;0.90;;;;;;;2.93;100.00;98624.22;6076328;23;20048;-87
2022/02/07 00:07:22;;;;;;;1.47;0.63;;;;;;;2.72;100.00;98622.09;6078682;23;20031;-86
2022/02/07 00:09:51;;;;;;;1.00;0.90;;;;;;;2.77;100.00;98626.31;6075407;23;20076;-85
2022/02/07 00:12:17;;;;;;;2.80;1.20;;;;;;;2.77;100.00;98631.53;6075432;23;20032;-86
2022/02/07 00:14:46;;;;;;;1.83;0.80;;;;;;;2.77;100.00;98643.72;6074577;23;20033;-87
2022/02/07 00:17:16;;;;;;;1.47;0.80;;;;;;;2.65;100.00;98646.59;6077239;23;20065;-86
2022/02/07 00:19:43;;;;;;;3.03;0.77;;;;;;;2.70;100.00;98653.44;6099525;23;20045;-86
2022/02/07 00:22:10;;;;;;;4.10;1.23;;;;;;;2.67;100.00;98655.22;6074631;23;20049;-85
2022/02/07 00:24:42;;;;;;;0.63;0.50;;;;;;;2.64;100.00;98671.78;6073601;23;20021;-86
2022/02/07 00:27:09;;;;;;;2.70;0.90;;;;;;;2.62;100.00;98678.81;6100328;23;20037;-86
2022/02/07 00:29:39;;;;;;;1.23;0.67;;;;;;;2.60;100.00;98683.16;6075372;23;20092;-86
2022/02/07 00:32:06;;;;;;;0.93;0.50;;;;;;;2.56;100.00;98684.13;6122268;23;20451;-86
2022/02/07 00:34:39;;;;;;;2.00;0.67;;;;;;;2.56;100.00;98691.94;6074621;23;20029;-87
2022/02/07 00:37:05;;;;;;;0.80;0.57;;;;;;;2.49;100.00;98703.38;6076268;23;20076;-85
2022/02/07 00:39:41;;;;;;;1.30;0.57;;;;;;;2.37;100.00;98711.44;6075050;23;20017;-86
2022/02/07 00:42:11;;;;;;;1.73;0.57;;;;;;;2.29;100.00;98705.50;6079636;23;20032;-86
2022/02/07 00:44:46;;;;;;;4.57;1.03;;;;;;;2.21;100.00;98714.31;6100513;23;20743;-84
2022/02/07 00:47:15;;;;;;;0.93;0.60;;;;;;;2.21;100.00;98722.13;6076598;23;20030;-85
2022/02/07 00:49:45;;;;;;;1.97;0.60;;;;;;;2.16;100.00;98723.09;6076701;23;20021;-84
2022/02/07 00:52:12;;;;;;;2.47;0.70;;;;;;;2.21;100.00;98732.56;6074792;23;20026;-85
2022/02/07 00:54:38;;;;;;;1.33;0.60;;;;;;;2.17;100.00;98741.28;6075945;23;20119;-85
2022/02/07 00:57:05;;;;;;;1.13;0.57;;;;;;;2.16;100.00;98742.19;6100990;23;20033;-86
2022/02/07 00:59:33;;;;;;;1.20;0.60;;;;;;;1.93;100.00;98741.72;6075247;23;20014;-85
2022/02/07 01:01:59;;;;;;;1.70;0.60;;;;;;;1.94;100.00;98736.50;6077037;23;20025;-85
2022/02/07 01:04:29;;;;;;;2.47;0.77;;;;;;;2.01;100.00;98746.78;6076634;23;20081;-85
2022/02/07 01:07:06;;;;;;;1.23;0.57;;;;;;;2.00;100.00;98750.28;6078429;23;20026;-85
2022/02/07 01:09:46;;;;;;;2.33;0.90;;;;;;;2.05;100.00;98751.09;6076999;23;20021;-86
2022/02/07 01:12:39;;;;;;;0.80;0.50;;;;;;;2.01;100.00;98754.59;6079112;23;20100;-86
2022/02/07 01:15:30;;;;;;;0.77;0.50;;;;;;;2.05;100.00;98758.91;6082562;23;20025;-86
2022/02/07 01:48:39;;;;;;;0.80;0.60;;;;;;;2.00;100.00;98836.22;6104973;23;20029;-87
2022/02/07 01:51:34;;;;;;;1.67;0.87;;;;;;;2.04;100.00;98838.78;6106385;23;20030;-88
2022/02/07 01:56:46;;;;;;;0.70;0.50;;;;;;;1.93;100.00;98848.47;6105054;23;20033;-85
2022/02/07 01:59:15;;;;;;;1.90;0.97;;;;;;;1.92;100.00;98852.81;6100038;23;20076;-87
2022/02/07 02:01:45;;;;;;;0.87;0.77;;;;;;;1.90;100.00;98862.41;6078626;23;20030;-86
2022/02/07 02:04:14;;;;;;;1.20;0.60;;;;;;;1.84;100.00;98872.03;6077255;23;20081;-85
2022/02/07 02:06:44;;;;;;;3.27;0.70;;;;;;;1.90;100.00;98870.22;6078100;23;20032;-86
2022/02/07 02:09:12;;;;;;;1.33;0.70;;;;;;;1.84;100.00;98888.53;6076033;23;20021;-86
2022/02/07 02:11:41;;;;;;;1.37;0.67;;;;;;;1.90;100.00;98874.56;6078459;23;20064;-83
2022/02/07 02:16:47;;;;;;;1.03;0.60;;;;;;;2.01;100.00;98898.72;6101838;23;20021;-85
2022/02/07 02:19:41;;;;;;;1.53;0.67;;;;;;;1.94;100.00;98904.91;6077243;23;20041;-85
2022/02/07 02:33:46;;;;;;;1.03;0.60;;;;;;;1.89;100.00;98941.41;6106145;23;20025;-86
2022/02/07 02:46:35;;;;;;;3.53;1.37;;;;;;;1.86;100.00;98985.75;6104551;23;20365;-86
2022/02/07 02:49:03;;;;;;;0.67;0.50;;;;;;;1.87;100.00;98991.81;6078420;23;20025;-85
2022/02/07 02:51:30;;;;;;;1.03;0.73;;;;;;;1.80;100.00;99004.03;6078719;23;20022;-84
2022/02/07 02:53:57;;;;;;;2.53;0.87;;;;;;;1.85;100.00;99007.44;6101365;23;20025;-84
2022/02/07 02:56:24;;;;;;;1.80;0.80;;;;;;;1.85;100.00;99022.19;6079832;23;20025;-84
2022/02/07 02:58:51;;;;;;;2.00;0.70;;;;;;;1.85;100.00;99037.81;6077744;23;20025;-84
2022/02/07 03:01:17;;;;;;;4.00;1.00;;;;;;;1.85;100.00;99028.28;6079402;23;20039;-85
2022/02/07 03:03:44;;;;;;;0.60;0.60;;;;;;;1.92;100.00;99048.13;6079165;23;20033;-84
2022/02/07 03:06:11;;;;;;;2.47;0.80;;;;;;;1.88;100.00;99056.03;6128436;23;20022;-86
2022/02/07 03:08:38;;;;;;;1.33;0.77;;;;;;;1.83;100.00;99069.06;6102188;23;20032;-85
2022/02/07 03:11:11;;;;;;;2.67;0.87;;;;;;;1.88;100.00;99063.84;6073738;23;20027;-86
2022/02/07 03:13:46;;;;;;;2.67;1.03;;;;;;;1.92;100.00;99084.59;6079803;23;20021;-84
2022/02/07 03:19:05;;;;;;;3.87;1.03;;;;;;;1.84;100.00;99093.38;6096756;23;20029;-81
2022/02/07 03:21:32;;;;;;;1.03;0.60;;;;;;;1.85;100.00;99109.00;6111119;23;20030;-79
2022/02/07 03:23:59;;;;;;;1.70;0.90;;;;;;;1.87;100.00;99106.38;6095954;23;20018;-81
2022/02/07 03:26:26;;;;;;;1.57;0.50;;;;;;;1.87;100.00;99114.19;6097572;23;20089;-80
2022/02/07 03:28:53;;;;;;;1.27;0.60;;;;;;;1.91;100.00;99126.28;6121874;23;20030;-81
2022/02/07 03:31:20;;;;;;;2.77;0.70;;;;;;;1.72;100.00;99136.03;6097341;23;20033;-80
2022/02/07 03:33:47;;;;;;;2.93;0.80;;;;;;;1.84;100.00;99143.72;6072678;23;20377;-80
2022/02/07 03:36:14;;;;;;;0.70;0.60;;;;;;;1.88;100.00;99154.97;6123375;23;20026;-80
2022/02/07 03:38:40;;;;;;;3.87;0.83;;;;;;;1.85;100.00;99148.06;6048113;23;20021;-81
2022/02/07 03:41:08;;;;;;;1.73;0.80;;;;;;;1.84;100.00;99154.13;6073988;23;20018;-81
2022/02/07 03:43:35;;;;;;;5.00;0.80;;;;;;;1.91;100.00;99167.97;6073740;23;20029;-80
2022/02/07 03:46:02;;;;;;;1.50;0.70;;;;;;;1.85;100.00;99174.09;6098447;23;20449;-81
2022/02/07 03:48:30;;;;;;;2.30;0.80;;;;;;;1.89;100.00;99186.19;6073132;23;20033;-81
2022/02/07 03:50:57;;;;;;;4.43;0.70;;;;;;;1.85;100.00;99194.03;6049982;23;20065;-81
2022/02/07 03:53:24;;;;;;;2.30;0.90;;;;;;;1.83;100.00;99199.28;6096896;23;20081;-80
2022/02/07 03:55:51;;;;;;;2.03;0.70;;;;;;;1.83;100.00;99207.09;6123635;23;20028;-80
2022/02/07 03:58:21;;;;;;;3.50;1.17;;;;;;;1.82;100.00;99207.97;6122539;23;20032;-78
2022/02/07 04:00:53;;;;;;;1.10;0.70;;;;;;;1.85;100.00;99207.97;6124864;23;20046;-79
2022/02/07 04:03:27;;;;;;;4.20;0.93;;;;;;;1.91;100.00;99220.91;6076800;23;20029;-79
2022/02/07 04:06:06;;;;;;;1.80;1.03;;;;;;;1.80;100.00;99230.56;6123804;23;20085;-79
2022/02/07 04:08:40;;;;;;;1.53;0.90;;;;;;;1.91;100.00;99215.69;6127720;23;20029;-80
2022/02/07 04:13:54;;;;;;;6.30;0.90;;;;;;;1.98;100.00;99266.00;6078000;23;20022;-78
2022/02/07 04:16:21;;;;;;;1.73;0.70;;;;;;;1.92;100.00;99266.03;6122498;23;20022;-79
2022/02/07 04:21:18;;;;;;;2.60;0.80;;;;;;;1.84;100.00;99279.13;6092408;23;20807;-80
2022/02/07 04:23:44;;;;;;;1.17;0.70;;;;;;;1.92;100.00;99279.06;6068390;23;20026;-81
2022/02/07 04:26:11;;;;;;;2.83;1.33;;;;;;;1.89;100.00;99308.59;6046310;23;20108;-79
2022/02/07 04:28:37;;;;;;;3.07;1.60;;;;;;;1.75;100.00;99292.19;6067843;23;20022;-80
2022/02/07 04:31:04;;;;;;;1.47;0.80;;;;;;;1.88;100.00;99301.66;6068552;23;20022;-79
2022/02/07 04:33:31;;;;;;;1.20;0.70;;;;;;;1.87;100.00;99312.09;6067511;23;20354;-80
2022/02/07 04:35:57;;;;;;;1.90;0.60;;;;;;;1.89;100.00;99323.38;6070272;23;20069;-80
2022/02/07 04:38:24;;;;;;;1.07;0.50;;;;;;;1.92;100.00;99323.34;6068684;23;20030;-80
2022/02/07 04:40:51;;;;;;;2.33;0.90;;;;;;;1.97;100.00;99332.84;6117454;23;20018;-80
2022/02/07 04:43:18;;;;;;;3.80;0.80;;;;;;;1.97;100.00;99340.66;6067534;23;20456;-81
2022/02/07 04:45:58;;;;;;;2.80;0.80;;;;;;;1.94;100.00;99358.94;6068586;23;20030;-81
2022/02/07 04:54:05;;;;;;;2.97;1.00;;;;;;;1.88;100.00;99364.16;6093034;23;20018;-80
2022/02/07 04:59:05;;;;;;;2.73;1.20;;;;;;;2.02;100.00;99374.50;6067939;23;20026;-80
2022/02/07 05:01:41;;;;;;;1.63;0.90;;;;;;;1.93;100.00;99387.56;6045777;23;20018;-79
2022/02/07 05:04:20;;;;;;;1.70;0.80;;;;;;;1.92;100.00;99389.31;6046135;23;20030;-81
2022/02/07 05:15:05;;;;;;;6.37;1.50;;;;;;;2.07;100.00;99409.19;6119339;23;20061;-81
2022/02/07 05:17:35;;;;;;;3.40;1.07;;;;;;;2.04;100.00;99424.84;6095244;23;20077;-78
2022/02/07 05:20:04;;;;;;;2.40;0.77;;;;;;;2.02;100.00;99429.22;6093113;23;20026;-79
2022/02/07 05:22:32;;;;;;;10.40;2.77;;;;;;;2.14;100.00;99426.53;6071078;23;20026;-79
2022/02/07 05:25:00;;;;;;;2.17;1.00;;;;;;;2.15;100.00;99435.19;6046315;23;20097;-79
2022/02/07 05:27:27;;;;;;;2.13;0.97;;;;;;;2.09;100.00;99445.66;6094526;23;20406;-80
2022/02/07 05:29:56;;;;;;;3.10;1.27;;;;;;;2.15;100.00;99443.03;6044996;23;20406;-80
2022/02/07 05:32:23;;;;;;;1.20;0.80;;;;;;;2.21;100.00;99453.41;6046619;23;20089;-79
2022/02/07 05:34:51;;;;;;;1.63;0.83;;;;;;;2.12;100.00;99464.75;6093077;23;20080;-80
2022/02/07 05:37:18;;;;;;;3.57;1.03;;;;;;;2.17;100.00;99464.72;6096731;23;20270;-80
2022/02/07 05:39:49;;;;;;;1.80;0.70;;;;;;;2.20;100.00;99488.16;6093301;23;20022;-80
2022/02/07 05:42:16;;;;;;;2.10;0.97;;;;;;;2.18;100.00;99482.94;6072173;23;20022;-79
2022/02/07 05:44:46;;;;;;;3.47;1.40;;;;;;;2.19;100.00;99495.13;6069196;23;20022;-79
2022/02/07 05:47:13;;;;;;;5.23;1.33;;;;;;;2.17;100.00;99491.63;6072478;23;20026;-80
2022/02/07 05:49:40;;;;;;;3.53;1.30;;;;;;;2.26;100.00;99501.13;6068974;23;20026;-79
2022/02/07 05:52:08;;;;;;;5.93;1.20;;;;;;;2.25;100.00;99508.09;6069735;23;20033;-80
2022/02/07 05:54:35;;;;;;;3.07;1.40;;;;;;;2.21;100.00;99519.41;6069522;23;20034;-80
2022/02/07 05:57:02;;;;;;;3.70;1.27;;;;;;;2.20;100.00;99515.09;6095211;23;20030;-79
2022/02/07 05:59:29;;;;;;;3.70;1.30;;;;;;;2.30;100.00;99518.50;6069714;23;20022;-80
2022/02/07 06:01:56;;;;;;;3.77;1.50;;;;;;;2.26;100.00;99527.19;6047430;23;20026;-80
2022/02/07 06:04:22;;;;;;;5.70;1.80;;;;;;;2.32;100.00;99540.19;6053044;23;20050;-79
2022/02/07 06:06:49;;;;;;;7.13;2.17;;;;;;;2.25;100.00;99555.00;6056608;23;20022;-81
2022/02/07 06:09:16;;;;;;;2.47;1.10;;;;;;;2.23;100.00;99561.09;6078296;23;20054;-80
2022/02/07 06:11:42;;;;;;;5.10;1.37;;;;;;;2.30;100.00;99578.44;6080799;23;20613;-79
2022/02/07 06:14:09;;;;;;;3.73;1.47;;;;;;;2.28;100.00;99575.00;6103475;23;20026;-79
2022/02/07 06:16:36;;;;;;;5.30;2.60;;;;;;;2.25;100.00;99590.63;6087164;23;20050;-79
2022/02/07 06:19:02;;;;;;;16.73;7.33;;;;;;;2.23;100.00;99588.03;6107684;23;20022;-79
2022/02/07 06:21:32;;;;;;;8.20;4.37;;;;;;;2.24;100.00;99594.97;6104988;23;20366;-80
2022/02/07 06:24:01;;;;;;;4.83;2.00;;;;;;;2.28;100.00;99615.81;6080207;23;20018;-80
2022/02/07 06:26:29;;;;;;;6.73;3.00;;;;;;;2.33;100.00;99611.44;6078519;23;20022;-82
2022/02/07 06:28:57;;;;;;;9.27;3.10;;;;;;;2.31;100.00;99623.63;6072397;23;20113;-81
2022/02/07 06:31:25;;;;;;;11.47;6.43;;;;;;;2.31;100.00;99640.13;6074351;23;20026;-80
2022/02/07 06:33:52;;;;;;;9.03;7.83;;;;;;;2.40;100.00;99626.19;6050456;23;20033;-80
2022/02/07 06:36:20;;;;;;;7.87;3.50;;;;;;;2.37;100.00;99654.88;6053265;23;20026;-79
2022/02/07 06:38:47;;;;;;;4.10;1.90;;;;;;;2.27;100.00;99667.06;6074512;23;20021;-83
2022/02/07 06:41:14;;;;;;;5.00;1.80;;;;;;;2.31;100.00;99667.91;6100509;23;20532;-80
2022/02/07 06:43:41;;;;;;;4.33;1.53;;;;;;;2.36;100.00;99671.41;6098913;23;20037;-80
2022/02/07 06:46:07;;;;;;;4.60;2.77;;;;;;;2.32;100.00;99669.66;6125863;23;20033;-79
2022/02/07 06:48:35;;;;;;;7.37;2.37;;;;;;;2.33;100.00;99695.72;6098638;23;20070;-80
2022/02/07 06:51:05;;;;;;;2.37;1.60;;;;;;;2.35;100.00;99693.09;6077365;23;20052;-80
2022/02/07 06:53:32;;;;;;;3.77;1.33;;;;;;;2.38;100.00;99695.72;6125177;23;20022;-80
2022/02/07 06:55:59;;;;;;;5.63;1.23;;;;;;;2.43;100.00;99696.53;6077014;23;20120;-80
2022/02/07 06:58:25;;;;;;;4.40;1.40;;;;;;;2.44;100.00;99701.78;6126118;23;20022;-80
2022/02/07 07:00:55;;;;;;;3.23;2.13;;;;;;;2.45;100.00;99724.38;6075988;23;20464;-80
2022/02/07 07:03:24;;;;;;;6.23;1.87;;;;;;;2.46;100.00;99720.88;6051540;23;20532;-80
2022/02/07 07:05:53;;;;;;;6.37;1.40;;;;;;;2.39;100.00;99719.16;6125731;23;20025;-80
2022/02/07 07:08:20;;;;;;;4.00;1.63;;;;;;;2.42;100.00;99718.28;6076193;23;20022;-80
2022/02/07 07:10:47;;;;;;;2.23;1.10;;;;;;;2.39;100.00;99719.16;6077265;23;20045;-81
2022/02/07 07:13:19;;;;;;;5.67;1.40;;;;;;;2.44;100.00;99721.75;6097633;23;20025;-80
2022/02/07 07:15:59;;;;;;;5.77;2.23;;;;;;;2.44;100.00;99727.84;6078993;23;20034;-80
2022/02/07 07:18:26;;;;;;;2.80;1.60;;;;;;;2.39;100.00;99749.56;6129183;23;20052;-80
2022/02/07 07:20:53;;;;;;;5.60;1.30;;;;;;;2.41;100.00;99747.81;6077069;23;20017;-80
2022/02/07 07:23:20;;;;;;;3.20;1.53;;;;;;;2.48;100.00;99753.03;6052989;23;20057;-80
2022/02/07 07:25:46;;;;;;;5.30;1.60;;;;;;;2.51;100.00;99759.97;6078597;23;20036;-79
2022/02/07 07:28:15;;;;;;;4.10;1.50;;;;;;;2.53;100.00;99771.28;6075551;23;20034;-80
2022/02/07 07:30:48;;;;;;;4.17;1.30;;;;;;;2.54;100.00;99779.09;6101909;23;20014;-81
2022/02/07 07:33:19;;;;;;;10.10;1.50;;;;;;;2.56;100.00;99779.06;6102424;23;20073;-80
2022/02/07 07:35:46;;;;;;;10.40;2.67;;;;;;;2.65;100.00;99791.22;6127463;23;20105;-81
2022/02/07 07:38:13;;;;;;;7.90;2.40;;;;;;;2.62;100.00;99791.25;6056081;23;20049;-81
2022/02/07 07:40:40;;;;;;;4.13;1.33;;;;;;;2.67;100.00;99803.38;6055011;23;20069;-80
2022/02/07 07:43:09;;;;;;;6.53;1.83;;;;;;;2.62;100.00;99799.06;6102651;23;20084;-80
2022/02/07 07:46:15;;;;;;;5.63;1.70;;;;;;;2.71;100.00;99818.16;6127327;23;20109;-81
2022/02/07 07:48:34;;;;;;;5.23;1.40;;;;;;;2.67;100.00;99819.03;6081994;23;20033;-81
2022/02/07 07:51:06;;;;;;;8.97;2.00;;;;;;;2.62;100.00;99825.16;6128393;23;20022;-81
2022/02/07 08:04:05;;;;;;;5.30;1.50;;;;;;;2.75;100.00;99847.69;6076552;23;20037;-80
2022/02/07 08:06:40;;;;;;;4.43;1.30;;;;;;;2.78;100.00;99863.38;6101827;23;20025;-80
2022/02/07 08:11:35;;;;;;;3.00;1.37;;;;;;;2.66;100.00;99866.84;6078414;23;20242;-81
2022/02/07 08:14:02;;;;;;;4.33;1.40;;;;;;;2.72;100.00;99866.84;6103718;23;20025;-81
2022/02/07 08:16:28;;;;;;;6.23;2.03;;;;;;;2.77;100.00;99869.44;6079835;23;20076;-80
2022/02/07 08:18:59;;;;;;;4.30;1.63;;;;;;;2.95;100.00;99879.00;6075753;23;20030;-80
2022/02/07 08:21:26;;;;;;;6.87;1.83;;;;;;;2.97;100.00;99885.06;6126772;23;20028;-81
2022/02/07 08:23:53;;;;;;;4.00;2.27;;;;;;;3.02;100.00;99891.13;6099917;23;20022;-81
2022/02/07 08:26:20;;;;;;;7.10;1.80;;;;;;;3.01;100.00;99899.81;6126291;23;20029;-81
2022/02/07 08:28:47;;;;;;;5.00;1.80;;;;;;;3.02;100.00;99901.56;6052526;23;20026;-81
2022/02/07 08:31:14;;;;;;;4.93;1.50;;;;;;;2.96;100.00;99905.06;6126576;23;20026;-80
2022/02/07 08:33:40;;;;;;;8.93;1.97;;;;;;;2.96;100.00;99915.50;6124941;23;20022;-79
2022/02/07 08:36:07;;;;;;;7.03;3.00;;;;;;;3.02;100.00;99905.03;6079550;23;20052;-81
2022/02/07 08:38:34;;;;;;;3.47;1.30;;;;;;;2.96;100.00;99912.03;6101984;23;20029;-81
2022/02/07 08:41:01;;;;;;;6.30;1.90;;;;;;;3.03;100.00;99921.59;6128190;23;20052;-81
2022/02/07 08:43:28;;;;;;;11.47;2.00;;;;;;;3.12;100.00;99931.13;6102784;23;20018;-80
2022/02/07 08:45:54;;;;;;;6.77;3.10;;;;;;;3.06;100.00;99929.41;6080471;23;20116;-81
2022/02/07 08:48:24;;;;;;;6.90;1.83;;;;;;;3.12;100.00;99934.63;6049778;23;20104;-80
2022/02/07 08:50:54;;;;;;;5.60;2.10;;;;;;;3.14;100.00;99940.69;6122256;23;20018;-81
2022/02/07 08:53:23;;;;;;;4.33;1.70;;;;;;;3.15;100.00;99954.63;6074637;23;20025;-81
2022/02/07 08:55:52;;;;;;;6.53;1.50;;;;;;;3.19;100.00;99957.19;6124051;23;20030;-81
2022/02/07 08:58:23;;;;;;;7.63;2.00;;;;;;;3.18;100.00;99965.91;6051355;23;20460;-80
2022/02/07 09:00:57;;;;;;;6.90;1.70;;;;;;;3.28;100.00;99969.34;6123502;23;20093;-80
2022/02/07 09:08:39;;;;;;;7.50;1.67;;;;;;;3.39;100.00;99972.84;6098685;23;20342;-80
2022/02/07 09:11:06;;;;;;;12.87;2.00;;;;;;;3.33;99.58;99980.69;6055389;23;20029;-79
2022/02/07 09:13:34;;;;;;;6.43;1.73;;;;;;;3.36;100.00;99972.81;6123265;23;20026;-80
2022/02/07 09:18:40;;;;;;;6.93;2.63;;;;;;;3.45;96.23;99974.53;6069174;23;20030;-84
2022/02/07 09:21:08;;;;;;;8.60;1.53;;;;;;;3.59;99.91;99991.06;6046930;23;20023;-82
2022/02/07 09:23:36;;;;;;;7.43;1.87;;;;;;;3.59;99.20;100001.50;6069249;23;20023;-84
2022/02/07 09:26:04;;;;;;;9.83;2.40;;;;;;;3.62;98.31;100010.22;6047999;23;20105;-82
2022/02/07 09:28:31;;;;;;;4.30;1.90;;;;;;;3.72;100.00;99991.91;6022365;23;20030;-83
2022/02/07 09:30:58;;;;;;;8.47;2.47;;;;;;;3.85;98.01;99997.06;6044868;23;20461;-83
2022/02/07 09:33:27;;;;;;;6.00;1.80;;;;;;;3.86;94.96;100000.53;6022754;23;20030;-82
2022/02/07 09:35:59;;;;;;;10.10;2.40;;;;;;;3.88;95.58;100015.34;6026147;23;20027;-82
2022/02/07 09:38:26;;;;;;;8.77;2.30;;;;;;;3.87;95.72;100020.59;6021360;23;20022;-81
2022/02/07 09:40:53;;;;;;;9.03;2.40;;;;;;;3.98;94.92;100023.16;6045360;23;20038;-82
2022/02/07 09:43:25;;;;;;;5.60;2.03;;;;;;;3.95;95.85;100045.81;6045515;23;20393;-83
2022/02/07 09:45:54;;;;;;;8.70;2.77;;;;;;;4.05;93.60;100044.03;6047312;23;20022;-82
2022/02/07 09:48:20;;;;;;;7.40;3.03;;;;;;;4.07;94.57;100036.19;6044400;23;20406;-83
2022/02/07 09:50:47;;;;;;;7.67;2.60;;;;;;;4.19;92.30;100046.56;6045614;23;20362;-83
2022/02/07 09:53:14;;;;;;;9.20;2.23;;;;;;;4.19;93.94;100051.81;6045233;23;20454;-84
2022/02/07 09:55:41;;;;;;;5.93;2.40;;;;;;;4.20;91.85;100071.84;6031608;23;20081;-84
2022/02/07 09:58:08;;;;;;;9.37;2.73;;;;;;;4.19;91.41;100072.72;6074249;23;20034;-84
2022/02/07 10:00:36;;;;;;;9.60;2.37;;;;;;;4.31;90.04;100074.44;6051768;23;20030;-84
2022/02/07 10:03:12;;;;;;;10.10;3.00;;;;;;;4.34;90.57;100082.25;6026064;23;20022;-81
2022/02/07 10:05:48;;;;;;;8.43;3.73;;;;;;;4.18;87.43;100098.00;6046696;23;20031;-82
2022/02/07 10:11:59;;;;;;;9.60;2.10;;;;;;;4.37;88.87;100111.91;6054855;23;20026;-85
2022/02/07 10:14:42;;;;;;;5.97;1.80;;;;;;;4.29;87.04;100115.38;6047915;23;20033;-82
2022/02/07 10:16:52;;;;;;;7.87;2.07;;;;;;;4.40;87.87;100129.31;6061689;23;20046;-85
2022/02/07 10:19:32;;;;;;;8.90;2.80;;;;;;;4.32;86.53;100133.69;6077993;23;20062;-85
2022/02/07 10:22:28;;;;;;;8.97;2.40;;;;;;;4.34;88.76;100139.78;6103143;23;20022;-83
2022/02/07 10:36:54;;;;;;;12.73;2.60;;;;;;;4.59;86.61;100166.72;6099693;23;20073;-85
2022/02/07 10:39:30;;;;;;;14.10;3.97;;;;;;;4.59;87.17;100166.72;6097034;23;20470;-82
2022/02/07 10:42:12;;;;;;;8.23;2.70;;;;;;;4.68;86.45;100171.91;6103289;23;20701;-83
2022/02/07 10:47:14;;;;;;;15.07;3.27;;;;;;;4.81;83.13;100178.84;6101074;23;20028;-83
2022/02/07 10:50:01;;;;;;;14.40;3.33;;;;;;;4.87;85.07;100198.84;6075342;23;20026;-82
2022/02/07 10:52:28;;;;;;;13.80;3.33;;;;;;;4.89;85.17;100190.16;6100428;23;20022;-85
2022/02/07 10:54:55;;;;;;;9.73;2.80;;;;;;;4.89;83.18;100194.50;6048845;23;20057;-84
2022/02/07 10:57:27;;;;;;;12.93;3.67;;;;;;;4.99;82.40;100206.66;6076342;23;20037;-82
2022/02/07 10:59:54;;;;;;;7.17;3.20;;;;;;;4.96;81.56;100204.94;6072171;23;20450;-84
2022/02/07 11:05:02;;;;;;;9.13;3.07;;;;;;;5.15;81.88;100231.03;6074785;23;20026;-84
2022/02/07 11:07:31;;;;;;;18.03;3.47;;;;;;;5.13;81.71;100225.81;6074450;23;20026;-85
2022/02/07 11:11:04;;;;;;;8.10;3.17;;;;;;;5.09;80.45;100222.31;6101920;23;20049;-83
2022/02/07 11:13:24;;;;;;;10.47;2.83;;;;;;;5.13;79.77;100244.13;6094679;23;20026;-83
2022/02/07 11:16:03;;;;;;;7.80;2.70;;;;;;;5.07;78.08;100241.53;6078383;23;20057;-85
2022/02/07 11:18:48;;;;;;;11.03;3.10;;;;;;;5.14;79.28;100245.00;6100694;23;20018;-83
2022/02/07 11:21:37;;;;;;;10.10;3.37;;;;;;;5.22;78.68;100264.16;6082584;23;20018;-83
2022/02/07 11:24:51;;;;;;;6.53;2.17;;;;;;;5.20;75.36;100258.03;6076384;23;20049;-83
2022/02/07 11:27:43;;;;;;;8.77;2.63;;;;;;;5.31;76.66;100277.22;6087757;23;20021;-81
2022/02/07 11:30:12;;;;;;;12.73;3.93;;;;;;;5.32;76.15;100263.22;6073855;23;20112;-83
2022/02/07 11:32:38;;;;;;;12.60;3.17;;;;;;;5.35;75.18;100276.31;6052937;23;20053;-81
2022/02/07 11:35:08;;;;;;;6.97;2.50;;;;;;;5.50;75.67;100286.69;6072024;23;20022;-82
2022/02/07 11:37:35;;;;;;;9.70;3.03;;;;;;;5.70;74.55;100269.97;6049636;23;20026;-83
2022/02/07 11:40:28;;;;;;;10.67;3.10;;;;;;;5.77;73.04;100284.78;6071235;23;20072;-82
2022/02/07 11:43:18;;;;;;;8.90;2.90;;;;;;;5.78;70.98;100286.50;6072948;23;20022;-82
2022/02/07 11:46:12;;;;;;;9.13;2.50;;;;;;;5.78;70.43;100300.50;6074973;23;20033;-84
2022/02/07 11:48:49;;;;;;;9.95;3.00;;;;;;;5.93;70.81;100302.16;6072428;23;20053;-85
2022/02/07 11:51:30;;;;;;;13.33;2.70;;;;;;;6.08;69.72;100311.69;6073393;23;20018;-83
2022/02/07 11:53:59;;;;;;;5.90;2.10;;;;;;;6.05;67.71;100311.69;6072858;23;20026;-83
2022/02/07 11:56:43;;;;;;;11.07;2.97;;;;;;;5.87;67.35;100299.56;6074621;23;20025;-85
2022/02/07 11:59:23;;;;;;;12.63;3.50;;;;;;;5.84;69.73;100324.06;6095831;23;20018;-82
2022/02/07 12:02:01;;;;;;;12.90;3.20;;;;;;;5.96;70.32;100330.97;6096643;23;20014;-81
2022/02/07 12:04:43;;;;;;;12.63;3.20;;;;;;;5.70;66.11;100311.91;6072075;23;20032;-86
2022/02/07 12:07:22;;;;;;;6.83;3.87;;;;;;;5.68;66.89;100324.16;6048915;23;20028;-86
2022/02/07 12:10:13;;;;;;;14.33;3.10;;;;;;;5.68;67.96;100330.25;6095772;23;20021;-86
2022/02/07 12:12:41;;;;;;;10.60;2.50;;;;;;;5.65;67.81;100344.28;6072213;23;20018;-87
2022/02/07 12:15:26;;;;;;;9.80;2.90;;;;;;;5.63;67.92;100337.28;6121687;23;20029;-84
2022/02/07 12:17:58;;;;;;;10.03;2.87;;;;;;;5.52;68.32;100339.97;6095525;23;20030;-84
2022/02/07 12:20:31;;;;;;;19.77;3.80;;;;;;;5.47;66.47;100361.84;6050068;23;20033;-86
2022/02/07 12:23:04;;;;;;;9.63;2.50;;;;;;;5.61;69.60;100355.63;6049987;23;20071;-83
2022/02/07 12:25:59;;;;;;;11.50;2.90;;;;;;;5.39;67.78;100361.00;6101594;23;20029;-85
2022/02/07 12:28:45;;;;;;;8.63;2.90;;;;;;;5.64;68.76;100371.34;6096791;23;20022;-87
2022/02/07 12:31:22;;;;;;;11.23;3.10;;;;;;;5.68;68.41;100363.47;6051243;23;20406;-85
2022/02/07 12:34:03;;;;;;;7.47;2.67;;;;;;;5.70;65.67;100378.28;6072015;23;20390;-84
2022/02/07 12:36:35;;;;;;;9.03;3.00;;;;;;;5.73;64.54;100374.81;6073411;23;20093;-81
2022/02/07 12:39:05;;;;;;;8.37;2.50;;;;;;;5.81;65.49;100380.88;6071731;23;20049;-83
2022/02/07 12:41:33;;;;;;;12.27;3.13;;;;;;;5.88;64.88;100403.53;6072522;23;20014;-84
2022/02/07 12:44:02;;;;;;;13.73;3.90;;;;;;;5.91;62.99;100386.09;6071978;23;20025;-82
2022/02/07 12:46:30;;;;;;;11.03;2.73;;;;;;;5.96;63.38;100406.16;6072593;23;20032;-87
2022/02/07 12:49:02;;;;;;;12.77;3.10;;;;;;;5.73;61.44;100411.50;6097041;23;20077;-85
2022/02/07 12:51:42;;;;;;;10.73;3.60;;;;;;;5.67;60.82;100416.78;6073655;23;20026;-83
2022/02/07 12:54:10;;;;;;;11.40;3.50;;;;;;;5.67;63.67;100409.78;6049872;23;20558;-84
2022/02/07 12:56:38;;;;;;;9.10;3.27;;;;;;;5.83;62.92;100421.06;6096401;23;20022;-83
2022/02/07 12:59:06;;;;;;;10.00;3.87;;;;;;;5.80;62.79;100448.19;6072584;23;20022;-85
2022/02/07 13:01:36;;;;;;;8.03;3.00;;;;;;;5.77;61.23;100445.53;6073467;23;20028;-84
2022/02/07 13:04:07;;;;;;;7.43;3.03;;;;;;;5.77;63.40;100432.44;6048446;23;20033;-81
2022/02/07 13:06:38;;;;;;;9.83;3.50;;;;;;;5.67;61.40;100445.59;6097867;23;20050;-84
2022/02/07 13:09:23;;;;;;;9.13;2.40;;;;;;;5.72;61.88;100443.81;6053949;23;20025;-85
2022/02/07 13:12:02;;;;;;;12.03;2.90;;;;;;;5.71;62.61;100453.41;6097210;23;20057;-85
2022/02/07 13:14:36;;;;;;;9.43;4.20;;;;;;;5.62;62.03;100463.94;6050271;23;20073;-84
2022/02/07 13:17:04;;;;;;;11.57;3.40;;;;;;;5.80;61.10;100452.50;6050324;23;20033;-85
2022/02/07 13:19:40;;;;;;;8.53;2.53;;;;;;;5.84;58.93;100459.50;6072098;23;20030;-84
2022/02/07 13:22:08;;;;;;;11.87;3.10;;;;;;;5.81;59.80;100452.53;6073103;23;20018;-86
2022/02/07 13:24:36;;;;;;;10.10;2.93;;;;;;;5.61;57.70;100470.94;6073152;23;20032;-86
2022/02/07 13:27:06;;;;;;;7.10;2.40;;;;;;;5.67;59.87;100472.69;6051917;23;20551;-85
2022/02/07 13:29:42;;;;;;;9.43;4.13;;;;;;;5.60;60.08;100463.97;6073583;23;20048;-85
2022/02/07 13:32:12;;;;;;;11.90;2.90;;;;;;;5.39;61.33;100474.50;6052329;23;20417;-86
2022/02/07 13:34:39;;;;;;;14.37;3.30;;;;;;;5.40;60.79;100481.50;6049400;23;20022;-85
2022/02/07 13:37:29;;;;;;;17.90;3.53;;;;;;;5.44;58.72;100479.72;6075604;23;20072;-85
2022/02/07 13:40:21;;;;;;;9.90;2.70;;;;;;;5.49;59.38;100485.84;6050192;23;20026;-84
2022/02/07 13:42:49;;;;;;;11.17;3.50;;;;;;;5.37;59.04;100526.00;6074466;23;20018;-86
2022/02/07 13:45:21;;;;;;;6.83;2.60;;;;;;;5.20;58.57;100517.31;6099608;23;20022;-87
2022/02/07 13:47:50;;;;;;;8.33;3.27;;;;;;;5.09;60.80;100522.56;6050111;23;20026;-85
2022/02/07 13:50:19;;;;;;;10.20;2.47;;;;;;;5.07;59.67;100530.44;6074951;23;20394;-86
2022/02/07 13:52:49;;;;;;;17.67;4.03;;;;;;;5.17;60.90;100531.28;6049875;23;20022;-82
2022/02/07 13:55:20;;;;;;;7.53;2.50;;;;;;;5.20;60.29;100531.28;6076491;23;20367;-88